sensor_id;sensor_type;location;lat;lon;timestamp;pressure;altitude;pressure_sealevel;temperature;humidity
19748;BME280;10032;51.386;12.516;2023-04-24T00:00:13;98909.47;;;14.69;100.00
19748;BME280;10032;51.386;12.516;2023-04-24T00:02:40;98899.06;;;14.71;100.00
19748;BME280;10032;51.386;12.516;2023-04-24T00:05:06;98888.97;;;14.71;100.00
19748;BME280;10032;51.386;12.516;2023-04-24T00:07:33;98878.06;;;14.71;100.00
19748;BME280;10032;51.386;12.516;2023-04-24T00:09:58;98878.06;;;14.71;100.00
19748;BME280;10032;51.386;12.516;2023-04-24T00:12:24;98873.75;;;14.70;100.00
19748;BME280;10032;51.386;12.516;2023-04-24T00:14:50;98867.78;;;14.68;100.00
19748;BME280;10032;51.386;12.516;2023-04-24T00:17:16;98848.81;;;14.63;100.00
19748;BME280;10032;51.386;12.516;2023-04-24T00:19:45;98855.19;;;14.59;100.00
19748;BME280;10032;51.386;12.516;2023-04-24T00:22:11;98858.22;;;14.57;100.00
19748;BME280;10032;51.386;12.516;2023-04-24T00:24:38;98855.78;;;14.56;100.00
19748;BME280;10032;51.386;12.516;2023-04-24T00:27:04;98850.66;;;14.54;100.00
19748;BME280;10032;51.386;12.516;2023-04-24T00:29:29;98853.88;;;14.56;100.00
19748;BME280;10032;51.386;12.516;2023-04-24T00:31:54;98856.13;;;14.54;100.00
19748;BME280;10032;51.386;12.516;2023-04-24T00:34:20;98868.94;;;14.54;100.00
19748;BME280;10032;51.386;12.516;2023-04-24T00:36:45;98877.59;;;14.56;100.00
19748;BME280;10032;51.386;12.516;2023-04-24T00:39:11;98866.69;;;14.56;100.00
19748;BME280;10032;51.386;12.516;2023-04-24T00:41:36;98863.47;;;14.54;100.00
19748;BME280;10032;51.386;12.516;2023-04-24T00:44:02;98868.63;;;14.55;100.00
19748;BME280;10032;51.386;12.516;2023-04-24T00:46:28;98869.13;;;14.57;100.00
19748;BME280;10032;51.386;12.516;2023-04-24T00:48:54;98866.50;;;14.52;100.00
19748;BME280;10032;51.386;12.516;2023-04-24T00:51:21;98865.91;;;14.55;100.00
19748;BME280;10032;51.386;12.516;2023-04-24T00:53:46;98863.78;;;14.52;100.00
19748;BME280;10032;51.386;12.516;2023-04-24T00:56:12;98869.75;;;14.54;100.00
19748;BME280;10032;51.386;12.516;2023-04-24T00:58:38;98873.88;;;14.52;100.00
19748;BME280;10032;51.386;12.516;2023-04-24T01:01:03;98875.78;;;14.51;100.00
19748;BME280;10032;51.386;12.516;2023-04-24T01:03:33;98870.75;;;14.45;100.00
19748;BME280;10032;51.386;12.516;2023-04-24T01:05:58;98879.84;;;14.40;100.00
19748;BME280;10032;51.386;12.516;2023-04-24T01:08:26;98867.94;;;14.36;100.00
19748;BME280;10032;51.386;12.516;2023-04-24T01:10:54;98867.34;;;14.39;100.00
19748;BME280;10032;51.386;12.516;2023-04-24T01:13:20;98867.75;;;14.33;100.00
19748;BME280;10032;51.386;12.516;2023-04-24T01:15:46;98875.09;;;14.32;100.00
19748;BME280;10032;51.386;12.516;2023-04-24T01:18:12;98873.31;;;14.28;100.00
19748;BME280;10032;51.386;12.516;2023-04-24T01:20:42;98875.22;;;14.27;100.00
19748;BME280;10032;51.386;12.516;2023-04-24T01:23:09;98874.44;;;14.27;100.00
19748;BME280;10032;51.386;12.516;2023-04-24T01:25:36;98868.78;;;14.23;100.00
19748;BME280;10032;51.386;12.516;2023-04-24T01:28:02;98870.19;;;14.21;100.00
19748;BME280;10032;51.386;12.516;2023-04-24T01:30:29;98873.91;;;14.25;100.00
19748;BME280;10032;51.386;12.516;2023-04-24T01:32:55;98878.28;;;14.26;100.00
19748;BME280;10032;51.386;12.516;2023-04-24T01:35:21;98886.31;;;14.17;100.00
19748;BME280;10032;51.386;12.516;2023-04-24T01:37:47;98881.66;;;14.18;100.00
19748;BME280;10032;51.386;12.516;2023-04-24T01:40:12;98890.75;;;14.13;100.00
19748;BME280;10032;51.386;12.516;2023-04-24T01:42:38;98879.34;;;14.11;100.00
19748;BME280;10032;51.386;12.516;2023-04-24T01:45:06;98877.22;;;14.08;100.00
19748;BME280;10032;51.386;12.516;2023-04-24T01:47:32;98881.06;;;14.07;100.00
19748;BME280;10032;51.386;12.516;2023-04-24T01:49:58;98874.81;;;14.07;100.00
19748;BME280;10032;51.386;12.516;2023-04-24T01:52:24;98871.50;;;14.10;100.00
19748;BME280;10032;51.386;12.516;2023-04-24T01:54:50;98875.94;;;14.06;100.00
19748;BME280;10032;51.386;12.516;2023-04-24T01:57:16;98873.78;;;14.03;100.00
19748;BME280;10032;51.386;12.516;2023-04-24T01:59:41;98873.59;;;13.99;100.00
19748;BME280;10032;51.386;12.516;2023-04-24T02:02:06;98867.38;;;13.99;100.00
19748;BME280;10032;51.386;12.516;2023-04-24T02:04:32;98861.69;;;13.95;100.00
19748;BME280;10032;51.386;12.516;2023-04-24T02:06:58;98862.31;;;13.92;100.00
19748;BME280;10032;51.386;12.516;2023-04-24T02:09:23;98862.91;;;13.89;100.00
19748;BME280;10032;51.386;12.516;2023-04-24T02:11:49;98868.66;;;13.88;100.00
19748;BME280;10032;51.386;12.516;2023-04-24T02:14:14;98864.13;;;13.83;100.00
19748;BME280;10032;51.386;12.516;2023-04-24T02:16:40;98857.66;;;13.79;100.00
19748;BME280;10032;51.386;12.516;2023-04-24T02:19:05;98869.94;;;13.77;100.00
19748;BME280;10032;51.386;12.516;2023-04-24T02:21:31;98865.91;;;13.74;100.00
19748;BME280;10032;51.386;12.516;2023-04-24T02:23:57;98855.03;;;13.74;100.00
19748;BME280;10032;51.386;12.516;2023-04-24T02:26:23;98862.22;;;13.70;100.00
19748;BME280;10032;51.386;12.516;2023-04-24T02:28:48;98859.25;;;13.67;100.00
19748;BME280;10032;51.386;12.516;2023-04-24T02:31:14;98869.34;;;13.66;100.00
19748;BME280;10032;51.386;12.516;2023-04-24T02:33:40;98860.06;;;13.67;100.00
19748;BME280;10032;51.386;12.516;2023-04-24T02:36:05;98850.09;;;13.63;100.00
19748;BME280;10032;51.386;12.516;2023-04-24T02:38:30;98858.34;;;13.58;100.00
19748;BME280;10032;51.386;12.516;2023-04-24T02:40:56;98856.41;;;13.58;100.00
19748;BME280;10032;51.386;12.516;2023-04-24T02:43:21;98854.03;;;13.57;100.00
19748;BME280;10032;51.386;12.516;2023-04-24T02:45:47;98854.31;;;13.55;100.00
19748;BME280;10032;51.386;12.516;2023-04-24T02:48:12;98861.97;;;13.53;100.00
19748;BME280;10032;51.386;12.516;2023-04-24T02:50:38;98855.19;;;13.51;100.00
19748;BME280;10032;51.386;12.516;2023-04-24T02:53:03;98861.47;;;13.51;100.00
19748;BME280;10032;51.386;12.516;2023-04-24T02:55:29;98849.75;;;13.51;100.00
19748;BME280;10032;51.386;12.516;2023-04-24T02:57:54;98853.38;;;13.46;100.00
19748;BME280;10032;51.386;12.516;2023-04-24T03:00:20;98848.25;;;13.45;100.00
19748;BME280;10032;51.386;12.516;2023-04-24T03:02:45;98854.50;;;13.45;100.00
19748;BME280;10032;51.386;12.516;2023-04-24T03:05:11;98860.75;;;13.46;100.00
19748;BME280;10032;51.386;12.516;2023-04-24T03:07:37;98849.66;;;13.42;100.00
19748;BME280;10032;51.386;12.516;2023-04-24T03:10:03;98860.25;;;13.44;100.00
19748;BME280;10032;51.386;12.516;2023-04-24T03:12:30;98849.66;;;13.42;100.00
19748;BME280;10032;51.386;12.516;2023-04-24T03:14:55;98860.31;;;13.39;100.00
19748;BME280;10032;51.386;12.516;2023-04-24T03:17:20;98866.66;;;13.34;100.00
19748;BME280;10032;51.386;12.516;2023-04-24T03:19:46;98865.66;;;13.30;100.00
19748;BME280;10032;51.386;12.516;2023-04-24T03:22:11;98872.69;;;13.31;100.00
19748;BME280;10032;51.386;12.516;2023-04-24T03:24:37;98877.94;;;13.28;100.00
19748;BME280;10032;51.386;12.516;2023-04-24T03:27:02;98863.00;;;13.25;100.00
19748;BME280;10032;51.386;12.516;2023-04-24T03:29:28;98873.91;;;13.25;100.00
19748;BME280;10032;51.386;12.516;2023-04-24T03:31:53;98866.34;;;13.22;100.00
19748;BME280;10032;51.386;12.516;2023-04-24T03:34:19;98870.16;;;13.21;100.00
19748;BME280;10032;51.386;12.516;2023-04-24T03:36:44;98872.66;;;13.18;100.00
19748;BME280;10032;51.386;12.516;2023-04-24T03:39:12;98875.75;;;13.11;100.00
19748;BME280;10032;51.386;12.516;2023-04-24T03:41:38;98879.00;;;13.13;100.00
19748;BME280;10032;51.386;12.516;2023-04-24T03:44:03;98874.69;;;13.12;100.00
19748;BME280;10032;51.386;12.516;2023-04-24T03:46:28;98873.84;;;13.12;100.00
19748;BME280;10032;51.386;12.516;2023-04-24T03:48:54;98878.47;;;13.11;100.00
19748;BME280;10032;51.386;12.516;2023-04-24T03:51:20;98874.44;;;13.09;100.00
19748;BME280;10032;51.386;12.516;2023-04-24T03:53:45;98873.16;;;13.06;100.00
19748;BME280;10032;51.386;12.516;2023-04-24T03:56:11;98873.16;;;13.06;100.00
19748;BME280;10032;51.386;12.516;2023-04-24T03:58:36;98885.63;;;13.07;100.00
19748;BME280;10032;51.386;12.516;2023-04-24T04:01:02;98886.41;;;13.08;100.00
19748;BME280;10032;51.386;12.516;2023-04-24T04:03:27;98882.69;;;13.04;100.00
19748;BME280;10032;51.386;12.516;2023-04-24T04:05:53;98889.53;;;13.01;100.00
19748;BME280;10032;51.386;12.516;2023-04-24T04:08:19;98892.25;;;13.01;100.00
19748;BME280;10032;51.386;12.516;2023-04-24T04:10:45;98889.53;;;13.01;100.00
19748;BME280;10032;51.386;12.516;2023-04-24T04:13:10;98882.16;;;13.02;100.00
19748;BME280;10032;51.386;12.516;2023-04-24T04:15:35;98888.72;;;13.01;100.00
19748;BME280;10032;51.386;12.516;2023-04-24T04:18:01;98887.09;;;13.00;100.00
19748;BME280;10032;51.386;12.516;2023-04-24T04:20:27;98883.06;;;12.97;100.00
19748;BME280;10032;51.386;12.516;2023-04-24T04:22:52;98891.78;;;12.94;100.00
19748;BME280;10032;51.386;12.516;2023-04-24T04:25:17;98895.88;;;12.92;100.00
19748;BME280;10032;51.386;12.516;2023-04-24T04:27:45;98892.38;;;12.91;100.00
19748;BME280;10032;51.386;12.516;2023-04-24T04:30:13;98893.47;;;12.90;100.00
19748;BME280;10032;51.386;12.516;2023-04-24T04:32:39;98890.25;;;12.88;100.00
19748;BME280;10032;51.386;12.516;2023-04-24T04:35:04;98891.34;;;12.87;100.00
19748;BME280;10032;51.386;12.516;2023-04-24T04:37:30;98889.75;;;12.86;100.00
19748;BME280;10032;51.386;12.516;2023-04-24T04:39:57;98887.53;;;12.88;100.00
19748;BME280;10032;51.386;12.516;2023-04-24T04:42:24;98893.47;;;12.90;100.00
19748;BME280;10032;51.386;12.516;2023-04-24T04:44:49;98890.44;;;12.92;100.00
19748;BME280;10032;51.386;12.516;2023-04-24T04:47:16;98884.44;;;12.95;100.00
19748;BME280;10032;51.386;12.516;2023-04-24T04:49:42;98880.09;;;12.94;100.00
19748;BME280;10032;51.386;12.516;2023-04-24T04:52:08;98879.25;;;12.98;100.00
19748;BME280;10032;51.386;12.516;2023-04-24T04:54:34;98897.16;;;12.99;100.00
19748;BME280;10032;51.386;12.516;2023-04-24T04:56:59;98892.75;;;13.03;100.00
19748;BME280;10032;51.386;12.516;2023-04-24T04:59:26;98891.84;;;13.08;100.00
19748;BME280;10032;51.386;12.516;2023-04-24T05:01:51;98890.66;;;13.14;100.00
19748;BME280;10032;51.386;12.516;2023-04-24T05:04:17;98903.69;;;13.17;100.00
19748;BME280;10032;51.386;12.516;2023-04-24T05:06:42;98907.66;;;13.24;100.00
19748;BME280;10032;51.386;12.516;2023-04-24T05:09:08;98901.84;;;13.31;100.00
19748;BME280;10032;51.386;12.516;2023-04-24T05:11:33;98898.69;;;13.37;100.00
19748;BME280;10032;51.386;12.516;2023-04-24T05:13:59;98904.16;;;13.37;100.00
19748;BME280;10032;51.386;12.516;2023-04-24T05:16:24;98901.00;;;13.62;100.00
19748;BME280;10032;51.386;12.516;2023-04-24T05:18:50;98901.75;;;13.95;100.00
19748;BME280;10032;51.386;12.516;2023-04-24T05:21:15;98907.88;;;14.00;100.00
19748;BME280;10032;51.386;12.516;2023-04-24T05:23:40;98906.47;;;14.03;100.00
19748;BME280;10032;51.386;12.516;2023-04-24T05:26:06;98890.78;;;14.27;100.00
19748;BME280;10032;51.386;12.516;2023-04-24T05:28:31;98910.16;;;14.74;100.00
19748;BME280;10032;51.386;12.516;2023-04-24T05:30:57;98906.75;;;15.04;100.00
19748;BME280;10032;51.386;12.516;2023-04-24T05:33:24;98910.13;;;15.23;100.00
19748;BME280;10032;51.386;12.516;2023-04-24T05:35:50;98910.72;;;15.20;100.00
19748;BME280;10032;51.386;12.516;2023-04-24T05:38:15;98909.34;;;15.09;100.00
19748;BME280;10032;51.386;12.516;2023-04-24T05:40:43;98921.75;;;14.93;100.00
19748;BME280;10032;51.386;12.516;2023-04-24T05:43:08;98922.16;;;14.87;100.00
19748;BME280;10032;51.386;12.516;2023-04-24T05:45:33;98912.19;;;14.82;100.00
19748;BME280;10032;51.386;12.516;2023-04-24T05:48:01;98910.53;;;14.95;100.00
19748;BME280;10032;51.386;12.516;2023-04-24T05:50:27;98917.09;;;14.94;100.00
19748;BME280;10032;51.386;12.516;2023-04-24T05:52:52;98911.94;;;14.92;100.00
19748;BME280;10032;51.386;12.516;2023-04-24T05:55:18;98916.16;;;14.98;100.00
19748;BME280;10032;51.386;12.516;2023-04-24T05:57:44;98910.97;;;15.10;100.00
19748;BME280;10032;51.386;12.516;2023-04-24T06:00:09;98918.31;;;15.23;100.00
19748;BME280;10032;51.386;12.516;2023-04-24T06:02:37;98912.16;;;15.40;100.00
19748;BME280;10032;51.386;12.516;2023-04-24T06:05:03;98926.50;;;15.45;100.00
19748;BME280;10032;51.386;12.516;2023-04-24T06:07:30;98918.44;;;15.62;100.00
19748;BME280;10032;51.386;12.516;2023-04-24T06:09:56;98922.97;;;15.75;100.00
19748;BME280;10032;51.386;12.516;2023-04-24T06:12:22;98923.63;;;15.72;100.00
19748;BME280;10032;51.386;12.516;2023-04-24T06:14:47;98922.97;;;15.75;100.00
19748;BME280;10032;51.386;12.516;2023-04-24T06:17:12;98925.22;;;15.73;100.00
19748;BME280;10032;51.386;12.516;2023-04-24T06:19:38;98924.16;;;15.83;100.00
19748;BME280;10032;51.386;12.516;2023-04-24T06:22:04;98932.03;;;15.84;100.00
19748;BME280;10032;51.386;12.516;2023-04-24T06:24:29;98929.03;;;15.94;100.00
19748;BME280;10032;51.386;12.516;2023-04-24T06:26:55;98917.00;;;15.95;100.00
19748;BME280;10032;51.386;12.516;2023-04-24T06:29:22;98924.59;;;16.07;100.00
19748;BME280;10032;51.386;12.516;2023-04-24T06:31:47;98929.13;;;16.11;100.00
19748;BME280;10032;51.386;12.516;2023-04-24T06:34:13;98924.59;;;16.07;100.00
19748;BME280;10032;51.386;12.516;2023-04-24T06:36:38;98929.19;;;15.89;100.00
19748;BME280;10032;51.386;12.516;2023-04-24T06:39:04;98922.38;;;15.78;100.00
19748;BME280;10032;51.386;12.516;2023-04-24T06:41:29;98933.72;;;15.72;100.00
19748;BME280;10032;51.386;12.516;2023-04-24T06:43:55;98934.81;;;15.62;100.00
19748;BME280;10032;51.386;12.516;2023-04-24T06:46:21;98927.63;;;15.66;100.00
19748;BME280;10032;51.386;12.516;2023-04-24T06:48:52;98931.59;;;15.60;100.00
19748;BME280;10032;51.386;12.516;2023-04-24T06:51:17;98934.06;;;15.48;100.00
19748;BME280;10032;51.386;12.516;2023-04-24T06:53:43;98926.75;;;15.35;100.00
19748;BME280;10032;51.386;12.516;2023-04-24T06:56:09;98925.72;;;15.31;100.00
19748;BME280;10032;51.386;12.516;2023-04-24T06:58:34;98916.41;;;15.32;100.00
19748;BME280;10032;51.386;12.516;2023-04-24T07:01:00;98924.03;;;15.35;100.00
19748;BME280;10032;51.386;12.516;2023-04-24T07:03:25;98920.53;;;15.43;100.00
19748;BME280;10032;51.386;12.516;2023-04-24T07:05:51;98916.06;;;15.47;100.00
19748;BME280;10032;51.386;12.516;2023-04-24T07:08:16;98913.47;;;15.42;100.00
19748;BME280;10032;51.386;12.516;2023-04-24T07:10:43;98917.31;;;15.41;100.00
19748;BME280;10032;51.386;12.516;2023-04-24T07:13:09;98918.50;;;15.49;100.00
19748;BME280;10032;51.386;12.516;2023-04-24T07:15:34;98919.03;;;15.59;100.00
19748;BME280;10032;51.386;12.516;2023-04-24T07:18:00;98928.53;;;15.62;100.00
19748;BME280;10032;51.386;12.516;2023-04-24T07:20:25;98925.31;;;15.60;100.00
19748;BME280;10032;51.386;12.516;2023-04-24T07:22:51;98923.88;;;15.62;100.00
19748;BME280;10032;51.386;12.516;2023-04-24T07:25:19;98918.78;;;15.69;100.00
19748;BME280;10032;51.386;12.516;2023-04-24T07:27:44;98917.09;;;15.82;100.00
19748;BME280;10032;51.386;12.516;2023-04-24T07:30:10;98909.66;;;16.04;100.00
19748;BME280;10032;51.386;12.516;2023-04-24T07:32:36;98912.38;;;16.04;100.00
19748;BME280;10032;51.386;12.516;2023-04-24T07:35:01;98922.84;;;16.11;100.00
19748;BME280;10032;51.386;12.516;2023-04-24T07:37:27;98920.72;;;15.99;100.00
19748;BME280;10032;51.386;12.516;2023-04-24T07:39:53;98913.28;;;15.91;100.00
19748;BME280;10032;51.386;12.516;2023-04-24T07:42:19;98923.00;;;16.06;100.00
19748;BME280;10032;51.386;12.516;2023-04-24T07:44:44;98926.38;;;16.11;100.00
19748;BME280;10032;51.386;12.516;2023-04-24T07:47:11;98915.78;;;16.10;100.00
19748;BME280;10032;51.386;12.516;2023-04-24T07:49:37;98920.81;;;16.25;100.00
19748;BME280;10032;51.386;12.516;2023-04-24T07:52:02;98916.75;;;16.44;100.00
19748;BME280;10032;51.386;12.516;2023-04-24T07:54:28;98919.69;;;16.73;100.00
19748;BME280;10032;51.386;12.516;2023-04-24T07:56:54;98916.97;;;16.82;100.00
19748;BME280;10032;51.386;12.516;2023-04-24T07:59:19;98922.59;;;16.85;100.00
19748;BME280;10032;51.386;12.516;2023-04-24T08:01:45;98918.56;;;16.91;100.00
19748;BME280;10032;51.386;12.516;2023-04-24T08:04:10;98928.56;;;16.87;100.00
19748;BME280;10032;51.386;12.516;2023-04-24T08:06:36;98924.53;;;16.76;100.00
19748;BME280;10032;51.386;12.516;2023-04-24T08:09:01;98923.41;;;16.77;100.00
19748;BME280;10032;51.386;12.516;2023-04-24T08:11:27;98927.25;;;16.76;100.00
19748;BME280;10032;51.386;12.516;2023-04-24T08:13:52;98935.63;;;16.71;100.00
19748;BME280;10032;51.386;12.516;2023-04-24T08:16:18;98928.69;;;16.65;100.00
19748;BME280;10032;51.386;12.516;2023-04-24T08:18:43;98939.28;;;16.67;100.00
19748;BME280;10032;51.386;12.516;2023-04-24T08:21:09;98930.31;;;16.83;100.00
19748;BME280;10032;51.386;12.516;2023-04-24T08:23:34;98930.19;;;17.05;100.00
19748;BME280;10032;51.386;12.516;2023-04-24T08:25:59;98937.09;;;17.28;100.00
19748;BME280;10032;51.386;12.516;2023-04-24T08:28:25;98932.75;;;17.19;100.00
19748;BME280;10032;51.386;12.516;2023-04-24T08:30:51;98930.84;;;17.19;100.00
19748;BME280;10032;51.386;12.516;2023-04-24T08:33:20;98932.59;;;17.24;100.00
19748;BME280;10032;51.386;12.516;2023-04-24T08:35:45;98932.91;;;17.22;100.00
19748;BME280;10032;51.386;12.516;2023-04-24T08:38:11;98934.69;;;17.27;100.00
19748;BME280;10032;51.386;12.516;2023-04-24T08:40:36;98933.09;;;17.34;100.00
19748;BME280;10032;51.386;12.516;2023-04-24T08:43:03;98929.88;;;17.41;100.00
19748;BME280;10032;51.386;12.516;2023-04-24T08:45:29;98935.00;;;17.59;100.00
19748;BME280;10032;51.386;12.516;2023-04-24T08:47:54;98928.69;;;17.76;100.00
19748;BME280;10032;51.386;12.516;2023-04-24T08:50:21;98933.50;;;17.87;100.00
19748;BME280;10032;51.386;12.516;2023-04-24T08:52:49;98932.38;;;17.88;100.00
19748;BME280;10032;51.386;12.516;2023-04-24T08:55:15;98929.94;;;17.87;100.00
19748;BME280;10032;51.386;12.516;2023-04-24T08:57:45;98937.09;;;17.71;100.00
19748;BME280;10032;51.386;12.516;2023-04-24T09:00:11;98938.88;;;17.50;100.00
19748;BME280;10032;51.386;12.516;2023-04-24T09:02:40;98934.88;;;17.39;100.00
19748;BME280;10032;51.386;12.516;2023-04-24T09:05:07;98948.88;;;17.54;100.00
19748;BME280;10032;51.386;12.516;2023-04-24T09:07:35;98945.91;;;17.93;100.00
19748;BME280;10032;51.386;12.516;2023-04-24T09:10:02;98946.44;;;18.33;100.00
19748;BME280;10032;51.386;12.516;2023-04-24T09:12:28;98945.84;;;18.56;100.00
19748;BME280;10032;51.386;12.516;2023-04-24T09:14:54;98940.56;;;18.72;100.00
19748;BME280;10032;51.386;12.516;2023-04-24T09:17:20;98939.88;;;18.83;100.00
19748;BME280;10032;51.386;12.516;2023-04-24T09:19:48;98947.22;;;18.91;100.00
19748;BME280;10032;51.386;12.516;2023-04-24T09:22:13;98943.63;;;18.70;100.00
19748;BME280;10032;51.386;12.516;2023-04-24T09:24:40;98948.03;;;18.71;100.00
19748;BME280;10032;51.386;12.516;2023-04-24T09:27:06;98947.06;;;18.67;98.44
19748;BME280;10032;51.386;12.516;2023-04-24T09:29:32;98954.84;;;18.57;97.66
19748;BME280;10032;51.386;12.516;2023-04-24T09:31:58;98952.84;;;18.45;97.40
19748;BME280;10032;51.386;12.516;2023-04-24T09:34:25;98956.41;;;18.37;97.38
19748;BME280;10032;51.386;12.516;2023-04-24T09:36:51;98956.88;;;18.31;97.05
19748;BME280;10032;51.386;12.516;2023-04-24T09:39:17;98954.31;;;18.26;96.14
19748;BME280;10032;51.386;12.516;2023-04-24T09:41:54;98965.81;;;18.19;96.75
19748;BME280;10032;51.386;12.516;2023-04-24T09:44:27;98965.50;;;18.12;96.51
19748;BME280;10032;51.386;12.516;2023-04-24T09:47:00;98972.00;;;17.99;95.86
19748;BME280;10032;51.386;12.516;2023-04-24T09:49:30;98979.28;;;17.87;95.75
19748;BME280;10032;51.386;12.516;2023-04-24T09:52:05;98969.13;;;17.87;95.68
19748;BME280;10032;51.386;12.516;2023-04-24T09:54:30;98971.38;;;17.85;94.93
19748;BME280;10032;51.386;12.516;2023-04-24T09:56:56;98968.47;;;17.90;92.87
19748;BME280;10032;51.386;12.516;2023-04-24T09:59:22;98969.66;;;17.72;91.24
19748;BME280;10032;51.386;12.516;2023-04-24T10:01:48;98962.72;;;17.66;89.05
19748;BME280;10032;51.386;12.516;2023-04-24T10:04:25;98968.38;;;17.53;87.98
19748;BME280;10032;51.386;12.516;2023-04-24T10:06:53;98969.34;;;17.48;87.12
19748;BME280;10032;51.386;12.516;2023-04-24T10:09:21;98965.66;;;17.44;86.39
19748;BME280;10032;51.386;12.516;2023-04-24T10:11:52;98964.63;;;17.74;85.96
19748;BME280;10032;51.386;12.516;2023-04-24T10:14:21;98964.72;;;18.12;87.21
19748;BME280;10032;51.386;12.516;2023-04-24T10:16:48;98960.78;;;18.21;86.33
19748;BME280;10032;51.386;12.516;2023-04-24T10:19:15;98951.09;;;18.32;85.61
19748;BME280;10032;51.386;12.516;2023-04-24T10:21:42;98968.97;;;18.38;85.44
19748;BME280;10032;51.386;12.516;2023-04-24T10:24:12;98966.91;;;18.35;83.19
19748;BME280;10032;51.386;12.516;2023-04-24T10:26:38;98957.28;;;18.58;84.95
19748;BME280;10032;51.386;12.516;2023-04-24T10:29:05;98967.44;;;18.87;85.58
19748;BME280;10032;51.386;12.516;2023-04-24T10:31:35;98962.53;;;18.72;83.90
19748;BME280;10032;51.386;12.516;2023-04-24T10:34:03;98969.56;;;18.52;83.38
19748;BME280;10032;51.386;12.516;2023-04-24T10:36:30;98978.31;;;18.46;81.40
19748;BME280;10032;51.386;12.516;2023-04-24T10:38:59;98979.97;;;18.38;81.77
19748;BME280;10032;51.386;12.516;2023-04-24T10:41:26;98973.53;;;18.34;80.77
19748;BME280;10032;51.386;12.516;2023-04-24T10:44:12;98976.75;;;18.36;80.71
19748;BME280;10032;51.386;12.516;2023-04-24T10:46:39;98975.38;;;18.51;80.48
19748;BME280;10032;51.386;12.516;2023-04-24T10:49:07;98969.25;;;18.83;80.38
19748;BME280;10032;51.386;12.516;2023-04-24T10:51:50;98967.94;;;19.09;77.13
19748;BME280;10032;51.386;12.516;2023-04-24T10:56:47;98955.28;;;19.17;76.02
19748;BME280;10032;51.386;12.516;2023-04-24T10:59:24;98987.38;;;19.04;73.64
19748;BME280;10032;51.386;12.516;2023-04-24T11:01:53;98987.38;;;19.04;73.88
19748;BME280;10032;51.386;12.516;2023-04-24T11:04:29;98990.31;;;18.99;72.75
19748;BME280;10032;51.386;12.516;2023-04-24T11:06:55;98974.38;;;19.13;71.75
19748;BME280;10032;51.386;12.516;2023-04-24T11:09:21;98981.81;;;19.13;69.66
19748;BME280;10032;51.386;12.516;2023-04-24T11:11:47;98977.63;;;19.56;72.78
19748;BME280;10032;51.386;12.516;2023-04-24T11:14:15;98979.59;;;20.00;71.02
19748;BME280;10032;51.386;12.516;2023-04-24T11:21:46;98991.47;;;20.13;66.18
19748;BME280;10032;51.386;12.516;2023-04-24T11:34:46;98989.63;;;19.84;58.84
19748;BME280;10032;51.386;12.516;2023-04-24T11:37:12;99006.06;;;20.25;59.94
19748;BME280;10032;51.386;12.516;2023-04-24T11:39:37;99000.97;;;20.60;57.71
19748;BME280;10032;51.386;12.516;2023-04-24T11:42:03;99013.91;;;20.59;55.31
19748;BME280;10032;51.386;12.516;2023-04-24T11:44:29;99013.56;;;20.61;55.82
19748;BME280;10032;51.386;12.516;2023-04-24T11:46:55;99014.78;;;20.39;54.26
19748;BME280;10032;51.386;12.516;2023-04-24T11:49:21;99015.47;;;20.24;53.70
19748;BME280;10032;51.386;12.516;2023-04-24T11:51:46;99024.63;;;20.28;51.79
19748;BME280;10032;51.386;12.516;2023-04-24T11:54:12;99027.66;;;20.59;53.02
19748;BME280;10032;51.386;12.516;2023-04-24T11:56:37;99016.53;;;20.68;52.01
19748;BME280;10032;51.386;12.516;2023-04-24T11:59:04;99019.31;;;20.80;52.10
19748;BME280;10032;51.386;12.516;2023-04-24T12:01:29;99012.31;;;21.18;51.17
19748;BME280;10032;51.386;12.516;2023-04-24T12:03:59;99011.19;;;20.83;49.07
19748;BME280;10032;51.386;12.516;2023-04-24T12:06:25;99019.78;;;20.82;49.25
19748;BME280;10032;51.386;12.516;2023-04-24T12:08:52;99023.97;;;20.43;48.85
19748;BME280;10032;51.386;12.516;2023-04-24T12:11:20;99019.34;;;20.23;48.69
19748;BME280;10032;51.386;12.516;2023-04-24T12:13:45;99022.88;;;20.56;49.86
19748;BME280;10032;51.386;12.516;2023-04-24T12:16:10;99014.28;;;20.82;49.01
19748;BME280;10032;51.386;12.516;2023-04-24T12:18:41;99008.19;;;20.88;48.55
19748;BME280;10032;51.386;12.516;2023-04-24T12:23:44;99015.97;;;20.86;48.93
19748;BME280;10032;51.386;12.516;2023-04-24T12:26:11;99020.13;;;20.68;47.80
19748;BME280;10032;51.386;12.516;2023-04-24T12:28:37;99024.69;;;20.64;48.47
19748;BME280;10032;51.386;12.516;2023-04-24T12:31:03;99007.03;;;21.13;48.39
19748;BME280;10032;51.386;12.516;2023-04-24T12:33:32;99013.28;;;21.50;48.58
19748;BME280;10032;51.386;12.516;2023-04-24T12:35:58;99005.50;;;21.40;46.87
19748;BME280;10032;51.386;12.516;2023-04-24T12:38:26;99013.28;;;20.98;46.98
19748;BME280;10032;51.386;12.516;2023-04-24T12:41:11;99010.28;;;20.91;47.67
19748;BME280;10032;51.386;12.516;2023-04-24T12:43:37;99019.44;;;21.19;46.72
19748;BME280;10032;51.386;12.516;2023-04-24T12:46:03;99021.94;;;21.36;47.02
19748;BME280;10032;51.386;12.516;2023-04-24T12:48:29;99020.13;;;20.92;45.29
19748;BME280;10032;51.386;12.516;2023-04-24T12:50:55;99024.69;;;20.64;44.31
19748;BME280;10032;51.386;12.516;2023-04-24T12:53:21;99027.97;;;20.22;45.43
19748;BME280;10032;51.386;12.516;2023-04-24T12:55:47;99013.72;;;20.20;44.57
19748;BME280;10032;51.386;12.516;2023-04-24T12:58:19;99018.47;;;20.31;45.25